Terminal Aerodrome Forecast
Issued by NWS St Louis, MO

Home | Current Version | Previous Version | Text Only | Print | Product List | Glossary On
Versions: 1 2 3 4 5 6 7 8 9 10 11 12 13 14 15 16 17 18 19 20 21
800
FTUS43 KLSX 202320
TAFCOU
TAF
KCOU 202320Z 2100/2124 28005KT P6SM SCT050 BKN150
     FM210200 17004KT P6SM SCT250
     FM211700 22006KT P6SM BKN060=

USA.gov is the U.S. government's official web portal to all federal, state and local government web resources and services.